createdAt,value
2018-03-06T00:00:51.957Z,92.00
2018-03-06T00:03:19.560Z,92.10
2018-03-06T00:05:46.415Z,92.10
2018-03-06T00:08:13.258Z,92.40
2018-03-06T00:10:40.138Z,92.40
2018-03-06T00:13:07.757Z,92.80
2018-03-06T00:15:34.634Z,92.80
2018-03-06T00:18:01.491Z,92.30
2018-03-06T00:20:29.099Z,92.90
2018-03-06T00:22:55.959Z,92.90
2018-03-06T00:25:22.819Z,93.00
2018-03-06T00:27:49.675Z,93.00
2018-03-06T00:30:17.346Z,93.30
2018-03-06T00:32:44.216Z,93.30
2018-03-06T00:35:11.063Z,93.50
2018-03-06T00:37:37.939Z,92.90
2018-03-06T00:40:04.810Z,93.30
2018-03-06T00:42:31.655Z,93.30
2018-03-06T00:44:58.554Z,93.40
2018-03-06T00:47:25.496Z,93.60
2018-03-06T00:49:52.359Z,92.70
2018-03-06T00:52:19.219Z,92.90
2018-03-06T00:54:46.078Z,93.20
2018-03-06T00:57:12.932Z,93.20
2018-03-06T00:59:39.802Z,92.70
2018-03-06T01:02:06.722Z,92.80
2018-03-06T01:04:34.278Z,92.60
2018-03-06T01:07:01.141Z,92.60
2018-03-06T01:09:28.026Z,92.80
2018-03-06T01:11:55.644Z,92.60
2018-03-06T01:14:22.558Z,92.60
2018-03-06T01:16:50.130Z,92.80
2018-03-06T01:19:17.767Z,92.80
2018-03-06T01:21:45.368Z,92.10
2018-03-06T01:24:12.235Z,92.00
2018-03-06T01:26:39.114Z,92.20
2018-03-06T01:29:06.734Z,92.70
2018-03-06T01:31:33.651Z,92.70
2018-03-06T01:34:00.446Z,92.50
2018-03-06T01:36:27.305Z,92.30
2018-03-06T01:38:54.166Z,92.70
2018-03-06T01:41:21.761Z,92.40
2018-03-06T01:43:48.622Z,92.40
2018-03-06T01:46:15.506Z,92.50
2018-03-06T01:48:43.110Z,92.90
2018-03-06T01:51:09.982Z,92.90
2018-03-06T01:53:36.839Z,92.40
2018-03-06T01:56:04.445Z,92.50
2018-03-06T01:58:31.311Z,92.50
2018-03-06T02:00:58.916Z,92.80
2018-03-06T02:03:26.555Z,92.60
2018-03-06T02:05:53.402Z,92.50
2018-03-06T02:08:21.027Z,92.50
2018-03-06T02:10:47.894Z,92.50
2018-03-06T02:13:15.502Z,92.40
2018-03-06T02:15:42.390Z,92.40
2018-03-06T02:18:09.262Z,92.80
2018-03-06T02:20:36.123Z,92.60
2018-03-06T02:23:03.066Z,92.80
2018-03-06T02:25:29.955Z,92.60
2018-03-06T02:27:56.838Z,92.50
2018-03-06T02:30:24.489Z,92.50
2018-03-06T02:32:51.347Z,92.50
2018-03-06T02:35:18.946Z,92.80
2018-03-06T02:37:45.809Z,92.80
2018-03-06T02:40:12.690Z,92.90
2018-03-06T02:42:39.542Z,92.50
2018-03-06T02:45:06.398Z,92.20
2018-03-06T02:47:33.295Z,92.30
2018-03-06T02:50:00.156Z,92.70
2018-03-06T02:52:27.028Z,92.70
2018-03-06T02:54:53.890Z,92.80
2018-03-06T02:57:20.753Z,93.10
2018-03-06T02:59:47.640Z,92.70
2018-03-06T03:02:14.516Z,92.90
2018-03-06T03:04:42.084Z,92.80
2018-03-06T03:07:08.965Z,92.80
2018-03-06T03:09:35.849Z,92.90
2018-03-06T03:12:03.440Z,92.90
2018-03-06T03:14:30.327Z,92.90
2018-03-06T03:16:57.933Z,92.90
2018-03-06T03:19:24.819Z,92.90
2018-03-06T03:21:51.695Z,93.00
2018-03-06T03:24:19.287Z,93.20
2018-03-06T03:26:46.119Z,93.20
2018-03-06T03:29:13.010Z,92.90
2018-03-06T03:31:39.854Z,92.90
2018-03-06T03:34:07.455Z,93.70
2018-03-06T03:36:35.039Z,93.10
2018-03-06T03:39:02.714Z,93.10
2018-03-06T03:41:29.606Z,93.10
2018-03-06T03:43:56.473Z,93.00
2018-03-06T03:46:23.326Z,93.10
2018-03-06T03:48:50.243Z,93.00
2018-03-06T03:51:17.139Z,93.10
2018-03-06T03:53:43.990Z,92.80
2018-03-06T03:56:10.840Z,92.70
2018-03-06T03:58:37.731Z,92.60
2018-03-06T04:01:04.598Z,92.50
2018-03-06T04:03:31.530Z,92.10
2018-03-06T04:05:58.379Z,92.30
2018-03-06T04:08:25.247Z,92.50
2018-03-06T04:10:52.143Z,92.30
2018-03-06T04:13:19.008Z,92.20
2018-03-06T04:15:45.870Z,92.10
2018-03-06T04:18:12.753Z,92.20
2018-03-06T04:20:39.582Z,92.20
2018-03-06T04:23:06.429Z,92.30
2018-03-06T04:25:34.063Z,92.50
2018-03-06T04:28:00.943Z,92.50
2018-03-06T04:30:28.564Z,92.60
2018-03-06T04:32:55.406Z,92.60
2018-03-06T04:35:22.279Z,92.70
2018-03-06T04:37:49.910Z,93.10
2018-03-06T04:40:16.798Z,93.10
2018-03-06T04:42:44.391Z,92.60
2018-03-06T04:45:11.283Z,92.50
2018-03-06T04:47:38.885Z,92.60
2018-03-06T04:50:05.735Z,92.50
2018-03-06T04:52:32.595Z,92.30
2018-03-06T04:54:59.478Z,92.20
2018-03-06T04:57:26.371Z,92.30
2018-03-06T04:59:53.246Z,92.60
2018-03-06T05:02:20.087Z,92.70
2018-03-06T05:04:47.017Z,93.00
2018-03-06T05:07:14.002Z,93.10
2018-03-06T05:09:41.620Z,93.50
2018-03-06T05:12:08.490Z,93.50
2018-03-06T05:14:35.366Z,93.40
2018-03-06T05:17:02.967Z,93.40
2018-03-06T05:19:29.863Z,93.40
2018-03-06T05:21:57.454Z,93.20
2018-03-06T05:24:24.314Z,93.20
2018-03-06T05:26:51.214Z,93.10
2018-03-06T05:29:18.921Z,93.60
2018-03-06T05:31:45.908Z,93.60
2018-03-06T05:34:12.915Z,93.20
2018-03-06T05:36:40.567Z,93.10
2018-03-06T05:39:07.426Z,93.10
2018-03-06T05:41:34.318Z,92.90
2018-03-06T05:44:01.931Z,93.30
2018-03-06T05:46:28.776Z,93.30
2018-03-06T05:48:55.613Z,93.20
2018-03-06T05:51:22.487Z,93.30
2018-03-06T05:53:50.114Z,93.40
2018-03-06T05:56:16.991Z,93.30
2018-03-06T05:58:43.868Z,93.40
2018-03-06T06:01:11.424Z,93.10
2018-03-06T06:03:39.006Z,92.90
2018-03-06T06:06:05.902Z,92.90
2018-03-06T06:08:32.754Z,93.30
2018-03-06T06:10:59.627Z,93.40
2018-03-06T06:13:26.484Z,93.50
2018-03-06T06:15:53.326Z,93.80
2018-03-06T06:18:20.159Z,93.30
2018-03-06T06:20:47.029Z,93.40
2018-03-06T06:23:13.879Z,93.90
2018-03-06T06:25:40.739Z,93.30
2018-03-06T06:28:08.350Z,92.70
2018-03-06T06:30:35.230Z,92.70
2018-03-06T06:33:02.075Z,93.40
2018-03-06T06:35:28.922Z,93.50
2018-03-06T06:37:55.783Z,93.90
2018-03-06T06:40:22.623Z,93.30
2018-03-06T06:42:49.494Z,92.90
2018-03-06T06:45:17.069Z,93.30
2018-03-06T06:47:44.627Z,93.60
2018-03-06T06:50:11.541Z,93.60
2018-03-06T06:52:38.378Z,93.80
2018-03-06T06:55:05.206Z,93.70
2018-03-06T06:57:32.083Z,93.60
2018-03-06T06:59:58.939Z,93.40
2018-03-06T07:02:25.811Z,93.30
2018-03-06T07:04:52.650Z,93.10
2018-03-06T07:07:19.465Z,92.80
2018-03-06T07:09:46.318Z,92.70
2018-03-06T07:12:13.184Z,92.80
2018-03-06T07:14:40.035Z,92.70
2018-03-06T07:17:06.871Z,92.80
2018-03-06T07:19:33.744Z,93.00
2018-03-06T07:22:00.594Z,93.20
2018-03-06T07:24:27.429Z,93.00
2018-03-06T07:26:54.299Z,92.70
2018-03-06T07:29:21.152Z,92.40
2018-03-06T07:31:48.015Z,92.00
2018-03-06T07:34:14.863Z,91.80
2018-03-06T07:36:41.710Z,92.20
2018-03-06T07:39:08.555Z,92.00
2018-03-06T07:41:35.455Z,92.00
2018-03-06T07:44:03.155Z,92.10
2018-03-06T07:46:30.003Z,92.20
2018-03-06T07:48:56.887Z,92.00
2018-03-06T07:51:23.723Z,92.20
2018-03-06T07:53:50.574Z,91.90
2018-03-06T07:56:17.463Z,91.80
2018-03-06T07:58:44.294Z,91.90
2018-03-06T08:01:11.160Z,91.40
2018-03-06T08:03:38.039Z,91.70
2018-03-06T08:06:04.892Z,91.70
2018-03-06T08:08:31.734Z,91.20
2018-03-06T08:10:58.605Z,91.30
2018-03-06T08:13:25.450Z,91.30
2018-03-06T08:15:52.323Z,91.70
2018-03-06T08:18:19.192Z,91.90
2018-03-06T08:20:46.014Z,91.60
2018-03-06T08:23:12.844Z,90.70
2018-03-06T08:25:39.707Z,90.80
2018-03-06T08:28:06.521Z,89.50
2018-03-06T08:30:33.334Z,89.30
2018-03-06T08:33:00.946Z,90.30
2018-03-06T08:35:27.787Z,90.30
2018-03-06T08:37:54.654Z,90.20
2018-03-06T08:40:21.487Z,90.30
2018-03-06T08:42:48.387Z,90.20
2018-03-06T08:45:15.230Z,90.10
2018-03-06T08:47:42.122Z,90.40
2018-03-06T08:50:08.965Z,90.40
2018-03-06T08:52:35.808Z,90.10
2018-03-06T08:55:02.715Z,89.00
2018-03-06T08:57:29.579Z,89.50
2018-03-06T08:59:56.448Z,90.40
2018-03-06T09:02:23.323Z,90.40
2018-03-06T09:04:50.175Z,90.00
2018-03-06T09:07:17.006Z,90.50
2018-03-06T09:09:44.615Z,89.90
2018-03-06T09:12:11.529Z,89.90
2018-03-06T09:14:39.083Z,89.50
2018-03-06T09:17:05.978Z,89.40
2018-03-06T09:19:33.924Z,89.10
2018-03-06T09:22:00.778Z,86.80
2018-03-06T09:24:28.378Z,83.70
2018-03-06T09:26:55.231Z,83.70
2018-03-06T09:29:22.134Z,84.20
2018-03-06T09:31:49.004Z,82.00
2018-03-06T09:34:16.583Z,80.60
2018-03-06T09:36:43.490Z,80.40
2018-03-06T09:39:10.344Z,79.30
2018-03-06T09:41:37.935Z,79.30
2018-03-06T09:44:04.799Z,79.20
2018-03-06T09:46:31.651Z,79.10
2018-03-06T09:48:58.520Z,77.80
2018-03-06T09:51:25.368Z,76.90
2018-03-06T09:53:52.971Z,74.60
2018-03-06T09:56:19.834Z,74.10
2018-03-06T09:58:46.718Z,73.30
2018-03-06T10:01:13.583Z,74.10
2018-03-06T10:03:41.162Z,75.30
2018-03-06T10:06:08.055Z,75.30
2018-03-06T10:08:34.884Z,76.30
2018-03-06T10:11:09.274Z,76.40
2018-03-06T10:13:36.146Z,77.10
2018-03-06T10:16:03.030Z,74.10
2018-03-06T10:18:30.634Z,73.90
2018-03-06T10:20:57.470Z,73.80
2018-03-06T10:23:24.315Z,72.80
2018-03-06T10:25:51.187Z,71.10
2018-03-06T10:28:18.030Z,71.50
2018-03-06T10:30:44.866Z,70.40
2018-03-06T10:33:11.733Z,69.80
2018-03-06T10:35:38.586Z,70.40
2018-03-06T10:38:06.187Z,71.60
2018-03-06T10:40:33.049Z,71.50
2018-03-06T10:43:00.358Z,73.60
2018-03-06T10:45:27.298Z,71.00
2018-03-06T10:47:54.897Z,70.40
2018-03-06T10:50:21.763Z,70.40
2018-03-06T10:52:48.607Z,70.20
2018-03-06T10:55:16.452Z,72.00
2018-03-06T10:57:43.258Z,69.70
2018-03-06T11:00:10.136Z,68.30
2018-03-06T11:02:42.038Z,69.10
2018-03-06T11:05:08.880Z,69.20
2018-03-06T11:07:35.722Z,70.30
2018-03-06T11:10:02.675Z,71.40
2018-03-06T11:12:29.518Z,71.40
2018-03-06T11:14:57.122Z,72.40
2018-03-06T11:17:24.027Z,72.30
2018-03-06T11:19:50.865Z,73.20
2018-03-06T11:22:17.689Z,72.40
2018-03-06T11:24:44.616Z,72.50
2018-03-06T11:27:11.488Z,73.80
2018-03-06T11:29:38.345Z,72.10
2018-03-06T11:32:05.203Z,73.40
2018-03-06T11:34:32.058Z,75.80
2018-03-06T11:36:58.874Z,74.70
2018-03-06T11:39:25.718Z,72.80
2018-03-06T11:41:52.581Z,72.30
2018-03-06T11:44:19.451Z,70.00
2018-03-06T11:46:46.327Z,68.20
2018-03-06T11:49:13.913Z,66.20
2018-03-06T11:51:40.782Z,66.20
2018-03-06T11:54:07.610Z,65.50
2018-03-06T11:56:34.471Z,64.60
2018-03-06T11:59:01.343Z,66.00
2018-03-06T12:01:28.924Z,64.00
2018-03-06T12:03:55.800Z,63.90
2018-03-06T12:06:23.086Z,59.40
2018-03-06T12:08:49.927Z,56.60
2018-03-06T12:11:17.486Z,51.50
2018-03-06T12:13:44.365Z,51.40
2018-03-06T12:16:11.931Z,51.60
2018-03-06T12:18:38.829Z,51.60
2018-03-06T12:21:05.679Z,51.60
2018-03-06T12:23:33.263Z,48.60
2018-03-06T12:26:00.854Z,47.50
2018-03-06T12:28:27.726Z,48.00
2018-03-06T12:30:54.551Z,51.20
2018-03-06T12:33:21.410Z,52.30
2018-03-06T12:35:48.247Z,52.80
2018-03-06T12:38:15.112Z,52.70
2018-03-06T12:40:41.934Z,49.90
2018-03-06T12:43:08.786Z,49.60
2018-03-06T12:45:35.646Z,51.70
2018-03-06T12:48:02.490Z,50.20
2018-03-06T12:50:29.315Z,50.60
2018-03-06T12:52:56.189Z,51.90
2018-03-06T12:55:23.778Z,52.40
2018-03-06T12:57:50.606Z,52.40
2018-03-06T13:00:17.423Z,51.70
2018-03-06T13:02:45.048Z,56.80
2018-03-06T13:05:11.878Z,56.80
2018-03-06T13:07:38.970Z,61.40
2018-03-06T13:10:06.595Z,66.60
2018-03-06T13:12:33.422Z,67.50
2018-03-06T13:15:00.259Z,64.60
2018-03-06T13:17:27.122Z,67.60
2018-03-06T13:19:53.967Z,68.20
2018-03-06T13:22:20.802Z,69.80
2018-03-06T13:24:47.690Z,66.30
2018-03-06T13:27:15.310Z,61.70
2018-03-06T13:29:42.142Z,61.70
2018-03-06T13:32:09.323Z,60.70
2018-03-06T13:34:36.198Z,61.10
2018-03-06T13:37:03.779Z,65.40
2018-03-06T13:39:30.611Z,65.30
2018-03-06T13:41:57.459Z,66.20
2018-03-06T13:44:25.015Z,68.00
2018-03-06T13:46:52.593Z,69.00
2018-03-06T13:49:19.475Z,68.90
2018-03-06T13:51:47.075Z,69.50
2018-03-06T13:54:14.670Z,70.70
2018-03-06T13:56:41.494Z,70.70
2018-03-06T13:59:08.331Z,68.80
2018-03-06T14:01:35.202Z,67.90
2018-03-06T14:04:02.084Z,67.50
2018-03-06T14:06:29.703Z,66.10
2018-03-06T14:08:56.596Z,66.10
2018-03-06T14:11:24.194Z,66.40
2018-03-06T14:13:51.031Z,66.50
2018-03-06T14:16:17.859Z,68.40
2018-03-06T14:18:45.440Z,69.60
2018-03-06T14:21:12.291Z,69.00
2018-03-06T14:23:39.146Z,67.60
2018-03-06T14:26:06.019Z,68.00
2018-03-06T14:28:32.843Z,66.10
2018-03-06T14:30:59.785Z,67.10
2018-03-06T14:33:26.627Z,68.10
2018-03-06T14:35:53.495Z,69.30
2018-03-06T14:38:20.350Z,70.70
2018-03-06T14:40:47.931Z,72.20
2018-03-06T14:43:14.766Z,72.10
2018-03-06T14:45:41.630Z,72.30
2018-03-06T14:48:08.483Z,76.80
2018-03-06T14:50:35.326Z,75.30
2018-03-06T14:53:02.173Z,75.50
2018-03-06T14:55:29.015Z,74.60
2018-03-06T14:57:56.615Z,73.40
2018-03-06T15:00:24.195Z,75.30
2018-03-06T15:02:51.048Z,74.50
2018-03-06T15:05:17.900Z,75.40
2018-03-06T15:07:45.395Z,76.50
2018-03-06T15:10:12.240Z,77.60
2018-03-06T15:12:46.127Z,75.90
2018-03-06T15:15:12.965Z,77.50
2018-03-06T15:17:39.815Z,78.00
2018-03-06T15:20:06.683Z,77.60
2018-03-06T15:22:33.524Z,76.30
2018-03-06T15:25:00.394Z,76.60
2018-03-06T15:27:27.984Z,79.40
2018-03-06T15:29:54.831Z,79.40
2018-03-06T15:32:21.687Z,78.50
2018-03-06T15:34:48.512Z,80.30
2018-03-06T15:37:15.343Z,80.50
2018-03-06T15:39:42.195Z,80.10
2018-03-06T15:42:09.039Z,80.00
2018-03-06T15:44:35.866Z,83.20
2018-03-06T15:47:02.726Z,82.00
2018-03-06T15:49:29.577Z,82.20
2018-03-06T15:51:56.431Z,82.70
2018-03-06T15:54:23.283Z,82.70
2018-03-06T15:56:50.141Z,84.00
2018-03-06T15:59:16.963Z,84.70
2018-03-06T16:01:43.823Z,83.50
2018-03-06T16:04:10.670Z,84.50
2018-03-06T16:06:37.496Z,81.90
2018-03-06T16:09:04.586Z,83.10
2018-03-06T16:11:32.362Z,85.20
2018-03-06T16:13:59.324Z,85.10
2018-03-06T16:16:26.349Z,85.10
2018-03-06T16:18:53.394Z,86.00
2018-03-06T16:21:21.002Z,87.70
2018-03-06T16:23:48.012Z,87.60
2018-03-06T16:26:15.116Z,88.40
2018-03-06T16:28:42.250Z,87.70
2018-03-06T16:31:09.245Z,88.10
2018-03-06T16:33:36.980Z,88.70
2018-03-06T16:36:03.954Z,88.60
2018-03-06T16:38:31.652Z,89.70
2018-03-06T16:40:59.633Z,89.50
2018-03-06T16:43:27.607Z,90.10
2018-03-06T16:45:54.724Z,89.50
2018-03-06T16:48:22.548Z,90.80
2018-03-06T16:50:49.662Z,90.80
2018-03-06T16:53:16.603Z,91.00
2018-03-06T16:55:43.560Z,90.90
2018-03-06T16:58:10.640Z,91.40
2018-03-06T17:00:44.621Z,91.50
2018-03-06T17:03:12.311Z,91.70
2018-03-06T17:05:39.439Z,91.70
2018-03-06T17:08:06.553Z,91.70
2018-03-06T17:10:33.694Z,91.90
2018-03-06T17:13:00.780Z,91.70
2018-03-06T17:15:28.559Z,92.60
2018-03-06T17:17:56.319Z,93.00
2018-03-06T17:20:23.305Z,93.00
2018-03-06T17:22:50.332Z,93.00
2018-03-06T17:25:17.332Z,93.20
2018-03-06T17:27:44.927Z,92.60
2018-03-06T17:30:11.806Z,92.60
2018-03-06T17:32:38.820Z,93.00
2018-03-06T17:35:06.567Z,92.60
2018-03-06T17:37:34.248Z,93.10
2018-03-06T17:40:01.250Z,93.00
2018-03-06T17:42:28.221Z,93.10
2018-03-06T17:44:55.180Z,93.20
2018-03-06T17:47:22.270Z,93.60
2018-03-06T17:49:49.229Z,93.80
2018-03-06T17:52:16.215Z,93.70
2018-03-06T17:54:43.291Z,93.50
2018-03-06T17:57:11.083Z,93.70
2018-03-06T17:59:38.143Z,93.30
2018-03-06T18:02:05.261Z,93.70
2018-03-06T18:04:32.243Z,93.90
2018-03-06T18:06:59.311Z,93.80
2018-03-06T18:09:26.357Z,93.90
2018-03-06T18:11:53.423Z,93.80
2018-03-06T18:14:20.450Z,93.70
2018-03-06T18:16:47.451Z,93.50
2018-03-06T18:19:14.531Z,93.60
2018-03-06T18:21:41.342Z,93.60
2018-03-06T18:24:08.230Z,93.60
2018-03-06T18:26:35.127Z,93.60
2018-03-06T18:29:02.055Z,93.80
2018-03-06T18:31:29.101Z,93.90
2018-03-06T18:33:55.990Z,93.80
2018-03-06T18:36:22.822Z,94.20
2018-03-06T18:38:49.994Z,94.10
2018-03-06T18:41:16.872Z,93.70
2018-03-06T18:43:43.698Z,93.80
2018-03-06T18:46:10.566Z,93.70
2018-03-06T18:48:37.403Z,93.70
2018-03-06T18:51:08.854Z,93.70
2018-03-06T18:53:36.463Z,93.60
2018-03-06T18:56:03.319Z,93.60
2018-03-06T18:58:30.165Z,93.80
2018-03-06T19:01:09.352Z,93.70
2018-03-06T19:03:49.360Z,93.90
2018-03-06T19:06:22.480Z,93.90
2018-03-06T19:08:49.389Z,93.80
2018-03-06T19:11:16.327Z,93.70
2018-03-06T19:13:43.795Z,94.20
2018-03-06T19:16:11.440Z,94.10
2018-03-06T19:18:38.287Z,94.10
2018-03-06T19:21:05.179Z,94.10
2018-03-06T19:23:32.799Z,93.80
2018-03-06T19:25:59.640Z,93.80
2018-03-06T19:28:26.536Z,94.00
2018-03-06T19:30:54.278Z,94.00
2018-03-06T19:33:21.886Z,94.00
2018-03-06T19:35:49.072Z,94.00
2018-03-06T19:38:15.983Z,94.20
2018-03-06T19:40:43.600Z,94.40
2018-03-06T19:43:11.193Z,93.90
2018-03-06T19:45:38.124Z,93.90
2018-03-06T19:48:05.698Z,93.80
2018-03-06T19:50:32.544Z,93.80
2018-03-06T19:53:00.508Z,93.80
2018-03-06T19:55:27.486Z,93.40
2018-03-06T19:57:54.399Z,93.80
2018-03-06T20:00:21.983Z,93.70
2018-03-06T20:02:49.083Z,93.70
2018-03-06T20:05:16.884Z,93.90
2018-03-06T20:07:44.907Z,94.00
2018-03-06T20:10:11.939Z,94.20
2018-03-06T20:12:39.163Z,94.40
2018-03-06T20:15:12.991Z,94.10
2018-03-06T20:17:40.147Z,94.00
2018-03-06T20:20:07.296Z,94.20
2018-03-06T20:22:34.940Z,94.00
2018-03-06T20:25:08.080Z,94.00
2018-03-06T20:27:35.953Z,94.40
2018-03-06T20:30:03.131Z,94.30
2018-03-06T20:32:36.111Z,94.40
2018-03-06T20:35:03.001Z,94.50
2018-03-06T20:37:29.866Z,94.60
2018-03-06T20:40:02.820Z,94.70
2018-03-06T20:42:29.838Z,94.50
2018-03-06T20:44:57.287Z,94.60
2018-03-06T20:47:24.403Z,94.70
2018-03-06T20:49:51.415Z,94.70
2018-03-06T20:52:18.288Z,94.50
2018-03-06T20:54:51.552Z,94.40
2018-03-06T20:57:18.670Z,94.80
2018-03-06T20:59:45.571Z,94.70
2018-03-06T21:02:13.482Z,94.70
2018-03-06T21:04:40.587Z,94.50
2018-03-06T21:07:08.252Z,95.00
2018-03-06T21:09:36.042Z,94.90
2018-03-06T21:12:02.931Z,94.80
2018-03-06T21:14:29.947Z,94.60
2018-03-06T21:16:57.888Z,94.70
2018-03-06T21:19:26.003Z,94.50
2018-03-06T21:21:53.065Z,94.50
2018-03-06T21:24:20.236Z,94.60
2018-03-06T21:26:47.404Z,94.30
2018-03-06T21:29:14.288Z,94.20
2018-03-06T21:31:41.300Z,94.40
2018-03-06T21:34:08.440Z,94.50
2018-03-06T21:36:35.457Z,94.00
2018-03-06T21:39:03.255Z,94.00
2018-03-06T21:41:30.116Z,94.10
2018-03-06T21:43:58.359Z,94.30
2018-03-06T21:46:25.886Z,94.60
2018-03-06T21:48:53.229Z,93.50
2018-03-06T21:51:20.888Z,93.50
2018-03-06T21:53:47.749Z,93.50
2018-03-06T21:56:14.613Z,92.90
2018-03-06T21:58:41.471Z,93.60
2018-03-06T22:01:09.131Z,93.40
2018-03-06T22:03:36.750Z,93.10
2018-03-06T22:06:03.611Z,93.10
2018-03-06T22:08:30.481Z,92.90
2018-03-06T22:10:57.322Z,92.80
2018-03-06T22:13:24.179Z,92.60
2018-03-06T22:15:50.990Z,92.20
2018-03-06T22:18:17.847Z,92.40
2018-03-06T22:20:44.698Z,92.80
2018-03-06T22:23:11.502Z,93.00
2018-03-06T22:25:38.401Z,92.60
2018-03-06T22:28:06.014Z,93.60
2018-03-06T22:30:32.887Z,93.60
2018-03-06T22:33:00.472Z,93.40
2018-03-06T22:35:27.330Z,93.40
2018-03-06T22:37:54.243Z,93.60
2018-03-06T22:40:21.819Z,92.60
2018-03-06T22:42:49.402Z,93.10
2018-03-06T22:45:16.261Z,93.10
2018-03-06T22:47:43.090Z,93.20
2018-03-06T22:50:09.911Z,93.60
2018-03-06T22:52:36.771Z,94.00
2018-03-06T22:55:03.646Z,93.90
2018-03-06T22:57:30.483Z,93.90
2018-03-06T22:59:57.348Z,94.00
2018-03-06T23:02:24.166Z,93.80
2018-03-06T23:04:50.999Z,94.00
2018-03-06T23:07:17.868Z,93.90
2018-03-06T23:09:44.759Z,94.50
2018-03-06T23:12:11.595Z,94.00
2018-03-06T23:14:39.153Z,93.70
2018-03-06T23:17:06.009Z,93.60
2018-03-06T23:19:32.827Z,94.20
2018-03-06T23:21:59.626Z,94.00
2018-03-06T23:24:26.467Z,94.40
2018-03-06T23:26:53.365Z,94.20
2018-03-06T23:29:20.158Z,94.40
2018-03-06T23:31:47.031Z,94.00
2018-03-06T23:34:14.614Z,93.90
2018-03-06T23:36:41.448Z,93.90
2018-03-06T23:39:08.315Z,94.00
2018-03-06T23:41:35.122Z,94.00
2018-03-06T23:44:02.706Z,93.90
2018-03-06T23:46:29.583Z,93.90
2018-03-06T23:48:56.406Z,94.20
2018-03-06T23:51:23.223Z,94.30
2018-03-06T23:53:50.087Z,94.30
2018-03-06T23:56:16.929Z,94.40
2018-03-06T23:58:43.775Z,94.00
